createdAt,value
2023-05-06T00:00:34.804Z,10.70
2023-05-06T00:03:03.180Z,9.80
2023-05-06T00:05:31.193Z,11.17
2023-05-06T00:07:59.238Z,10.13
2023-05-06T00:10:27.325Z,10.40
2023-05-06T00:12:55.547Z,9.10
2023-05-06T00:15:24.843Z,10.00
2023-05-06T00:17:52.795Z,11.00
2023-05-06T00:20:20.915Z,9.90
2023-05-06T00:22:48.937Z,10.83
2023-05-06T00:25:16.832Z,10.10
2023-05-06T00:27:44.956Z,10.50
2023-05-06T00:30:13.960Z,11.00
2023-05-06T00:32:43.281Z,10.53
2023-05-06T00:35:11.328Z,10.87
2023-05-06T00:37:39.388Z,10.70
2023-05-06T00:40:08.786Z,10.63
2023-05-06T00:42:36.752Z,10.23
2023-05-06T00:45:05.183Z,9.43
2023-05-06T00:47:33.364Z,9.57
2023-05-06T00:50:02.736Z,9.43
2023-05-06T00:52:31.240Z,9.83
2023-05-06T00:54:59.332Z,8.63
2023-05-06T00:57:27.772Z,9.13
2023-05-06T00:59:55.646Z,9.10
2023-05-06T01:02:28.300Z,9.73
2023-05-06T01:05:03.435Z,9.80
2023-05-06T01:07:41.971Z,10.10
2023-05-06T01:10:20.461Z,9.57
2023-05-06T01:12:55.205Z,9.97
2023-05-06T01:15:29.889Z,9.13
2023-05-06T01:17:59.741Z,9.67
2023-05-06T01:20:31.988Z,10.03
2023-05-06T01:23:02.939Z,9.17
2023-05-06T01:25:33.776Z,8.13
2023-05-06T01:28:01.698Z,9.40
2023-05-06T01:30:36.901Z,9.93
2023-05-06T01:33:12.538Z,9.50
2023-05-06T01:35:50.993Z,9.13
2023-05-06T01:38:26.778Z,8.23
2023-05-06T01:40:57.391Z,9.17
2023-05-06T01:43:29.046Z,8.93
2023-05-06T01:45:57.398Z,8.13
2023-05-06T01:48:27.468Z,8.97
2023-05-06T01:50:56.681Z,9.37
2023-05-06T01:53:24.738Z,9.17
2023-05-06T01:55:52.688Z,8.67
2023-05-06T01:58:21.976Z,9.27
2023-05-06T02:00:50.000Z,8.67
2023-05-06T02:03:17.983Z,9.13
2023-05-06T02:05:46.408Z,9.33
2023-05-06T02:08:14.310Z,8.03
2023-05-06T02:10:42.983Z,9.20
2023-05-06T02:13:12.628Z,8.60
2023-05-06T02:15:42.133Z,9.37
2023-05-06T02:18:14.786Z,9.43
2023-05-06T02:20:42.693Z,9.03
2023-05-06T02:23:17.535Z,9.70
2023-05-06T02:25:45.466Z,9.17
2023-05-06T02:28:14.052Z,8.90
2023-05-06T02:30:43.287Z,9.43
2023-05-06T02:33:11.186Z,9.37
2023-05-06T02:35:39.182Z,8.73
2023-05-06T02:38:07.022Z,8.90
2023-05-06T02:40:35.352Z,9.00
2023-05-06T02:43:03.272Z,9.50
2023-05-06T02:45:31.226Z,9.37
2023-05-06T02:48:01.690Z,8.53
2023-05-06T02:50:30.543Z,9.50
2023-05-06T02:52:58.334Z,8.00
2023-05-06T02:55:26.389Z,8.30
2023-05-06T02:57:54.292Z,7.70
2023-05-06T03:00:22.166Z,8.13
2023-05-06T03:02:50.112Z,7.80
2023-05-06T03:05:19.677Z,7.77
2023-05-06T03:07:47.864Z,7.20
2023-05-06T03:10:16.177Z,8.00
2023-05-06T03:12:44.681Z,7.60
2023-05-06T03:15:13.034Z,7.53
2023-05-06T03:17:41.370Z,7.87
2023-05-06T03:20:10.935Z,7.63
2023-05-06T03:22:44.220Z,7.63
2023-05-06T03:25:12.425Z,8.23
2023-05-06T03:27:42.382Z,8.30
2023-05-06T03:30:18.078Z,8.37
2023-05-06T03:32:48.636Z,8.20
2023-05-06T03:35:22.522Z,9.57
2023-05-06T03:37:56.130Z,8.27
2023-05-06T03:40:26.736Z,9.33
2023-05-06T03:42:55.648Z,9.07
2023-05-06T03:45:24.423Z,9.10
2023-05-06T03:47:53.611Z,10.60
2023-05-06T03:50:23.767Z,9.20
2023-05-06T03:52:54.169Z,9.13
2023-05-06T03:55:26.510Z,9.63
2023-05-06T03:57:54.950Z,8.90
2023-05-06T04:00:23.033Z,8.30
2023-05-06T04:02:54.680Z,9.00
2023-05-06T04:05:32.925Z,9.20
2023-05-06T04:08:01.162Z,9.80
2023-05-06T04:10:30.978Z,8.10
2023-05-06T04:13:04.910Z,8.40
2023-05-06T04:15:41.510Z,7.27
2023-05-06T04:18:18.859Z,8.37
2023-05-06T04:20:53.954Z,7.97
2023-05-06T04:23:22.206Z,8.50
2023-05-06T04:25:53.031Z,8.40
2023-05-06T04:28:23.788Z,7.77
2023-05-06T04:30:52.958Z,7.60
2023-05-06T04:33:24.972Z,7.70
2023-05-06T04:35:55.050Z,7.63
2023-05-06T04:38:25.903Z,8.40
2023-05-06T04:40:57.385Z,7.23
2023-05-06T04:43:26.448Z,8.37
2023-05-06T04:45:59.600Z,7.97
2023-05-06T04:48:31.628Z,8.53
2023-05-06T04:51:01.108Z,8.93
2023-05-06T04:53:29.763Z,8.30
2023-05-06T04:55:59.551Z,8.57
2023-05-06T04:58:27.690Z,8.87
2023-05-06T05:00:57.215Z,8.40
2023-05-06T05:03:25.626Z,8.23
2023-05-06T05:05:56.381Z,9.87
2023-05-06T05:08:24.410Z,9.63
2023-05-06T05:10:52.325Z,9.10
2023-05-06T05:13:24.516Z,9.10
2023-05-06T05:15:55.852Z,8.93
2023-05-06T05:18:26.789Z,9.20
2023-05-06T05:20:58.225Z,9.50
2023-05-06T05:23:26.313Z,8.40
2023-05-06T05:25:54.126Z,9.17
2023-05-06T05:28:22.277Z,8.40
2023-05-06T05:30:52.774Z,8.90
2023-05-06T05:33:20.969Z,9.20
2023-05-06T05:35:48.979Z,9.60
2023-05-06T05:38:17.345Z,8.63
2023-05-06T05:40:45.917Z,8.90
2023-05-06T05:43:13.918Z,8.13
2023-05-06T05:45:43.353Z,8.87
2023-05-06T05:48:14.605Z,9.33
2023-05-06T05:50:42.476Z,8.50
2023-05-06T05:53:11.234Z,8.77
2023-05-06T05:55:39.685Z,8.60
2023-05-06T05:58:07.533Z,8.60
2023-05-06T06:00:35.510Z,7.57
2023-05-06T06:03:11.174Z,6.73
2023-05-06T06:05:41.213Z,8.00
2023-05-06T06:08:09.134Z,8.60
2023-05-06T06:10:37.515Z,9.50
2023-05-06T06:13:12.272Z,7.97
2023-05-06T06:15:40.355Z,10.80
2023-05-06T06:18:08.986Z,9.27
2023-05-06T06:20:38.990Z,9.50
2023-05-06T06:23:08.283Z,7.77
2023-05-06T06:25:36.320Z,8.10
2023-05-06T06:28:04.258Z,9.00
2023-05-06T06:30:32.097Z,7.67
2023-05-06T06:33:01.376Z,8.07
2023-05-06T06:35:29.407Z,7.90
2023-05-06T06:37:57.346Z,8.30
2023-05-06T06:40:26.588Z,8.60
2023-05-06T06:42:54.597Z,7.93
2023-05-06T06:45:51.811Z,8.33
2023-05-06T06:48:20.441Z,8.10
2023-05-06T06:50:48.349Z,8.27
2023-05-06T06:53:16.282Z,8.57
2023-05-06T06:55:45.923Z,8.50
2023-05-06T06:58:13.930Z,9.30
2023-05-06T07:00:41.887Z,8.90
2023-05-06T07:03:09.815Z,8.70
2023-05-06T07:05:37.668Z,9.23
2023-05-06T07:08:05.853Z,9.40
2023-05-06T07:10:33.723Z,9.80
2023-05-06T07:13:02.997Z,9.40
2023-05-06T07:15:31.865Z,9.73
2023-05-06T07:17:59.852Z,9.03
2023-05-06T07:20:27.739Z,9.60
2023-05-06T07:22:56.227Z,10.00
2023-05-06T07:25:24.133Z,10.03
2023-05-06T07:27:52.057Z,11.00
2023-05-06T07:30:23.194Z,10.10
2023-05-06T07:32:51.564Z,9.67
2023-05-06T07:35:19.405Z,9.40
2023-05-06T07:37:47.661Z,10.07
2023-05-06T07:40:15.554Z,10.10
2023-05-06T07:42:43.495Z,9.30
2023-05-06T07:45:12.320Z,9.70
2023-05-06T07:47:41.993Z,9.70
2023-05-06T07:50:10.575Z,10.53
2023-05-06T07:52:38.534Z,10.30
2023-05-06T07:55:09.688Z,10.67
2023-05-06T07:57:37.775Z,9.67
2023-05-06T08:00:07.181Z,10.47
2023-05-06T08:02:44.477Z,10.43
2023-05-06T08:05:12.915Z,9.00
2023-05-06T08:07:41.296Z,9.90
2023-05-06T08:10:10.485Z,9.30
2023-05-06T08:12:38.529Z,9.40
2023-05-06T08:15:08.007Z,9.70
2023-05-06T08:17:36.110Z,10.03
2023-05-06T08:20:05.990Z,10.43
2023-05-06T08:22:33.884Z,10.73
2023-05-06T08:25:01.936Z,10.40
2023-05-06T08:27:29.779Z,9.70
2023-05-06T08:29:57.768Z,11.50
2023-05-06T08:32:25.746Z,10.43
2023-05-06T08:34:53.714Z,10.77
2023-05-06T08:37:23.088Z,10.10
2023-05-06T08:39:51.224Z,10.17
2023-05-06T08:42:19.283Z,10.20
2023-05-06T08:44:47.385Z,10.93
2023-05-06T08:47:15.387Z,12.63
2023-05-06T08:49:43.286Z,13.30
2023-05-06T08:52:12.670Z,14.87
2023-05-06T08:54:42.632Z,11.27
2023-05-06T08:57:13.099Z,11.40
2023-05-06T08:59:42.433Z,14.27
2023-05-06T09:02:11.298Z,11.73
2023-05-06T09:04:39.688Z,10.43
2023-05-06T09:07:07.683Z,10.33
2023-05-06T09:09:35.606Z,10.00
2023-05-06T09:12:07.023Z,10.00
2023-05-06T09:14:35.179Z,10.53
2023-05-06T09:17:03.678Z,10.87
2023-05-06T09:19:31.639Z,10.20
2023-05-06T09:21:59.471Z,10.53
2023-05-06T09:24:27.590Z,10.90
2023-05-06T09:26:57.027Z,11.03
2023-05-06T09:29:26.374Z,11.10
2023-05-06T09:31:55.172Z,11.90
2023-05-06T09:34:24.644Z,11.23
2023-05-06T09:36:57.062Z,11.00
2023-05-06T09:39:26.755Z,11.90
2023-05-06T09:41:54.788Z,11.27
2023-05-06T09:44:23.338Z,11.13
2023-05-06T09:46:53.106Z,11.60
2023-05-06T09:49:21.944Z,11.90
2023-05-06T09:51:51.758Z,11.63
2023-05-06T09:54:20.357Z,12.13
2023-05-06T09:56:49.026Z,11.20
2023-05-06T09:59:18.501Z,12.43
2023-05-06T10:01:47.018Z,11.87
2023-05-06T10:04:18.399Z,11.17
2023-05-06T10:06:49.290Z,11.17
2023-05-06T10:09:18.317Z,11.73
2023-05-06T10:11:47.850Z,14.90
2023-05-06T10:14:15.857Z,11.60
2023-05-06T10:16:44.310Z,10.80
2023-05-06T10:19:13.227Z,12.03
2023-05-06T10:21:46.819Z,11.23
2023-05-06T10:24:20.130Z,12.97
2023-05-06T10:26:48.042Z,11.50
2023-05-06T10:29:16.227Z,11.47
2023-05-06T10:31:49.310Z,10.53
2023-05-06T10:34:21.111Z,11.80
2023-05-06T10:36:53.117Z,11.60
2023-05-06T10:39:21.785Z,11.80
2023-05-06T10:41:50.071Z,11.40
2023-05-06T10:44:17.946Z,11.53
2023-05-06T10:47:00.561Z,12.37
2023-05-06T10:49:29.151Z,12.47
2023-05-06T10:52:14.034Z,12.13
2023-05-06T10:54:49.485Z,11.90
2023-05-06T10:57:17.524Z,12.70
2023-05-06T10:59:49.785Z,11.60
2023-05-06T11:02:19.841Z,10.30
2023-05-06T11:04:52.223Z,10.33
2023-05-06T11:07:25.007Z,9.77
2023-05-06T11:09:57.516Z,10.40
2023-05-06T11:12:50.070Z,10.70
2023-05-06T11:15:26.465Z,8.60
2023-05-06T11:17:55.930Z,8.40
2023-05-06T11:20:25.413Z,9.27
2023-05-06T11:22:55.473Z,9.50
2023-05-06T11:25:43.251Z,8.73
2023-05-06T11:28:12.407Z,8.67
2023-05-06T11:30:42.978Z,9.27
2023-05-06T11:33:18.583Z,8.10
2023-05-06T11:35:46.719Z,8.37
2023-05-06T11:38:16.003Z,8.30
2023-05-06T11:40:43.936Z,8.53
2023-05-06T11:43:12.914Z,8.50
2023-05-06T11:45:42.073Z,7.83
2023-05-06T11:48:12.848Z,7.60
2023-05-06T11:50:45.417Z,6.87
2023-05-06T11:53:13.516Z,7.50
2023-05-06T11:55:42.934Z,7.10
2023-05-06T11:58:14.137Z,6.13
2023-05-06T12:00:49.701Z,8.33
2023-05-06T12:03:19.068Z,6.83
2023-05-06T12:05:48.241Z,6.77
2023-05-06T12:08:26.693Z,11.07
2023-05-06T12:11:00.725Z,6.00
2023-05-06T12:13:30.033Z,5.40
2023-05-06T12:15:59.513Z,4.60
2023-05-06T12:18:28.134Z,4.67
2023-05-06T12:21:57.230Z,5.03
2023-05-06T12:24:28.969Z,5.40
2023-05-06T12:26:58.301Z,5.23
2023-05-06T12:29:26.219Z,6.23
2023-05-06T12:32:09.649Z,7.00
2023-05-06T12:34:38.354Z,6.37
2023-05-06T12:37:06.897Z,6.67
2023-05-06T12:39:36.497Z,5.50
2023-05-06T12:42:06.465Z,5.20
2023-05-06T12:44:36.329Z,5.60
2023-05-06T12:47:07.523Z,5.80
2023-05-06T12:49:46.815Z,5.03
2023-05-06T12:52:16.752Z,7.40
2023-05-06T12:54:44.829Z,5.83
2023-05-06T12:57:14.290Z,5.20
2023-05-06T12:59:42.496Z,4.53
2023-05-06T13:02:11.110Z,5.23
2023-05-06T13:04:39.362Z,4.80
2023-05-06T13:07:07.289Z,5.00
2023-05-06T13:09:35.384Z,4.70
2023-05-06T13:12:04.587Z,4.57
2023-05-06T13:14:33.960Z,5.90
2023-05-06T13:17:04.732Z,4.80
2023-05-06T13:19:33.469Z,4.73
2023-05-06T13:22:02.014Z,4.83
2023-05-06T13:24:30.824Z,4.17
2023-05-06T13:27:00.862Z,4.10
2023-05-06T13:29:29.479Z,5.00
2023-05-06T13:31:58.988Z,4.50
2023-05-06T13:34:27.206Z,3.63
2023-05-06T13:36:56.614Z,4.30
2023-05-06T13:39:25.064Z,4.13
2023-05-06T13:41:54.173Z,5.40
2023-05-06T13:44:24.370Z,4.40
2023-05-06T13:46:52.565Z,4.00
2023-05-06T13:49:21.947Z,4.60
2023-05-06T13:51:49.923Z,4.30
2023-05-06T13:54:17.805Z,4.60
2023-05-06T13:56:46.867Z,4.70
2023-05-06T13:59:14.740Z,7.30
2023-05-06T14:01:43.189Z,4.77
2023-05-06T14:04:11.223Z,4.03
2023-05-06T14:06:40.597Z,4.77
2023-05-06T14:09:08.597Z,4.27
2023-05-06T14:11:36.684Z,4.40
2023-05-06T14:14:04.672Z,3.77
2023-05-06T14:16:32.588Z,3.87
2023-05-06T14:19:00.646Z,4.23
2023-05-06T14:21:28.467Z,4.30
2023-05-06T14:23:58.209Z,4.23
2023-05-06T14:26:26.831Z,4.20
2023-05-06T14:28:54.637Z,4.50
2023-05-06T14:31:23.063Z,4.17
2023-05-06T14:33:51.175Z,4.80
2023-05-06T14:36:19.816Z,4.33
2023-05-06T14:38:47.742Z,4.37
2023-05-06T14:41:17.014Z,4.30
2023-05-06T14:43:45.083Z,4.90
2023-05-06T14:46:14.411Z,4.03
2023-05-06T14:48:43.281Z,4.60
2023-05-06T14:51:11.282Z,4.77
2023-05-06T14:53:39.142Z,4.30
2023-05-06T14:56:09.458Z,4.40
2023-05-06T14:58:39.506Z,4.00
2023-05-06T15:01:08.006Z,3.80
2023-05-06T15:03:36.262Z,4.03
2023-05-06T15:06:04.480Z,4.30
2023-05-06T15:08:32.624Z,4.23
2023-05-06T15:11:03.030Z,4.93
2023-05-06T15:13:31.984Z,3.93
2023-05-06T15:16:01.286Z,4.73
2023-05-06T15:18:29.208Z,5.00
2023-05-06T15:20:58.696Z,5.60
2023-05-06T15:23:26.693Z,4.27
2023-05-06T15:25:54.696Z,5.47
2023-05-06T15:28:24.543Z,4.93
2023-05-06T15:30:52.826Z,5.73
2023-05-06T15:33:22.405Z,6.90
2023-05-06T15:35:50.421Z,6.20
2023-05-06T15:38:18.346Z,5.23
2023-05-06T15:40:51.432Z,5.33
2023-05-06T15:43:23.589Z,5.20
2023-05-06T15:45:52.153Z,5.63
2023-05-06T15:48:20.049Z,6.27
2023-05-06T15:50:49.299Z,4.70
2023-05-06T15:53:17.165Z,4.43
2023-05-06T15:55:49.776Z,4.80
2023-05-06T15:58:24.580Z,2.50
2023-05-06T16:00:53.086Z,2.53
2023-05-06T16:03:21.347Z,2.10
2023-05-06T16:05:50.712Z,2.00
2023-05-06T16:08:18.666Z,2.10
2023-05-06T16:10:47.147Z,2.60
2023-05-06T16:13:15.158Z,2.40
2023-05-06T16:15:43.283Z,2.90
2023-05-06T16:18:11.399Z,2.70
2023-05-06T16:20:39.344Z,2.50
2023-05-06T16:23:08.659Z,2.67
2023-05-06T16:25:38.135Z,2.90
2023-05-06T16:28:06.598Z,2.93
2023-05-06T16:30:34.462Z,3.43
2023-05-06T16:33:02.387Z,3.03
2023-05-06T16:35:30.401Z,2.67
2023-05-06T16:37:58.362Z,3.13
2023-05-06T16:40:28.230Z,3.80
2023-05-06T16:42:56.192Z,4.13
2023-05-06T16:45:24.317Z,3.80
2023-05-06T16:47:52.316Z,4.87
2023-05-06T16:50:20.302Z,4.93
2023-05-06T16:52:48.229Z,5.30
2023-05-06T16:55:16.197Z,6.50
2023-05-06T16:57:45.450Z,6.37
2023-05-06T17:00:16.506Z,5.57
2023-05-06T17:02:44.539Z,5.83
2023-05-06T17:05:12.648Z,5.10
2023-05-06T17:07:41.002Z,5.27
2023-05-06T17:10:09.912Z,4.93
2023-05-06T17:12:38.059Z,4.97
2023-05-06T17:15:08.977Z,5.10
2023-05-06T17:17:36.993Z,5.03
2023-05-06T17:20:06.980Z,4.30
2023-05-06T17:22:34.893Z,5.00
2023-05-06T17:25:02.830Z,4.80
2023-05-06T17:27:30.694Z,4.40
2023-05-06T17:30:01.392Z,5.50
2023-05-06T17:32:31.255Z,4.53
2023-05-06T17:34:59.210Z,4.70
2023-05-06T17:37:27.117Z,4.57
2023-05-06T17:39:55.116Z,4.20
2023-05-06T17:42:23.028Z,5.10
2023-05-06T17:44:51.110Z,5.23
2023-05-06T17:47:22.607Z,3.97
2023-05-06T17:49:54.540Z,5.00
2023-05-06T17:52:22.546Z,4.50
2023-05-06T17:55:05.819Z,4.97
2023-05-06T17:57:38.452Z,4.87
2023-05-06T18:00:07.923Z,5.27
2023-05-06T18:02:39.767Z,5.20
2023-05-06T18:05:10.124Z,4.37
2023-05-06T18:07:38.277Z,5.00
2023-05-06T18:10:07.140Z,5.00
2023-05-06T18:12:35.381Z,5.43
2023-05-06T18:15:03.635Z,4.87
2023-05-06T18:17:33.154Z,5.30
2023-05-06T18:20:01.129Z,5.13
2023-05-06T18:22:30.674Z,7.20
2023-05-06T18:24:58.606Z,8.80
2023-05-06T18:27:27.195Z,5.47
2023-05-06T18:29:55.044Z,5.80
2023-05-06T18:32:22.955Z,5.80
2023-05-06T18:34:50.811Z,6.60
2023-05-06T18:37:18.698Z,5.50
2023-05-06T18:39:48.354Z,5.40
2023-05-06T18:42:17.666Z,6.13
2023-05-06T18:44:45.584Z,6.13
2023-05-06T18:47:13.389Z,6.97
2023-05-06T18:49:41.284Z,6.43
2023-05-06T18:52:09.093Z,5.77
2023-05-06T18:54:37.103Z,5.20
2023-05-06T18:57:06.489Z,6.03
2023-05-06T18:59:34.704Z,6.63
2023-05-06T19:02:03.835Z,6.37
2023-05-06T19:04:32.492Z,6.40
2023-05-06T19:07:01.167Z,6.33
2023-05-06T19:09:29.280Z,9.57
2023-05-06T19:11:57.174Z,12.10
2023-05-06T19:14:26.688Z,8.90
2023-05-06T19:16:54.657Z,7.17
2023-05-06T19:19:22.517Z,7.00
2023-05-06T19:21:50.457Z,7.37
2023-05-06T19:24:18.339Z,37.20
2023-05-06T19:26:46.427Z,20.77
2023-05-06T19:29:14.722Z,10.37
2023-05-06T19:31:44.033Z,8.27
2023-05-06T19:34:11.869Z,19.47
2023-05-06T19:36:39.664Z,33.37
2023-05-06T19:39:07.595Z,17.50
2023-05-06T19:41:35.512Z,15.63
2023-05-06T19:44:04.063Z,8.83
2023-05-06T19:46:31.992Z,6.63
2023-05-06T19:49:01.303Z,7.10
2023-05-06T19:51:35.038Z,7.33
2023-05-06T19:54:03.035Z,9.80
2023-05-06T19:56:30.831Z,9.20
2023-05-06T19:58:58.819Z,9.30
2023-05-06T20:01:27.229Z,9.10
2023-05-06T20:03:55.433Z,8.40
2023-05-06T20:06:24.717Z,9.77
2023-05-06T20:08:52.537Z,8.80
2023-05-06T20:11:20.331Z,10.10
2023-05-06T20:13:48.186Z,9.17
2023-05-06T20:16:16.099Z,7.80
2023-05-06T20:18:44.083Z,8.73
2023-05-06T20:21:11.946Z,8.00
2023-05-06T20:23:41.267Z,9.03
2023-05-06T20:26:09.200Z,9.00
2023-05-06T20:28:39.175Z,8.40
2023-05-06T20:31:07.456Z,8.60
2023-05-06T20:33:35.421Z,11.70
2023-05-06T20:36:03.936Z,18.37
2023-05-06T20:38:32.046Z,11.20
2023-05-06T20:41:02.833Z,8.30
2023-05-06T20:43:31.622Z,8.17
2023-05-06T20:45:59.647Z,7.50
2023-05-06T20:48:28.056Z,8.73
2023-05-06T20:50:57.933Z,8.33
2023-05-06T20:53:27.212Z,7.80
2023-05-06T20:55:55.210Z,7.50
2023-05-06T20:58:24.535Z,7.90
2023-05-06T21:00:52.386Z,8.40
2023-05-06T21:03:20.356Z,8.60
2023-05-06T21:05:48.240Z,8.30
2023-05-06T21:08:16.181Z,7.67
2023-05-06T21:10:44.050Z,8.80
2023-05-06T21:13:11.951Z,17.97
2023-05-06T21:15:41.258Z,16.70
2023-05-06T21:18:09.203Z,10.00
2023-05-06T21:20:37.119Z,8.53
2023-05-06T21:23:05.036Z,9.07
2023-05-06T21:25:32.912Z,9.20
2023-05-06T21:28:04.792Z,10.17
2023-05-06T21:30:33.246Z,10.07
2023-05-06T21:33:02.665Z,10.30
2023-05-06T21:35:31.421Z,10.30
2023-05-06T21:37:59.340Z,9.93
2023-05-06T21:40:27.407Z,11.40
2023-05-06T21:42:55.252Z,10.23
2023-05-06T21:45:23.219Z,10.63
2023-05-06T21:47:51.232Z,9.57
2023-05-06T21:50:20.807Z,11.43
2023-05-06T21:52:48.670Z,15.30
2023-05-06T21:55:16.731Z,10.77
2023-05-06T21:57:45.312Z,9.40
2023-05-06T22:00:14.934Z,9.00
2023-05-06T22:02:42.976Z,9.47
2023-05-06T22:05:11.393Z,8.80
2023-05-06T22:07:40.857Z,8.40
2023-05-06T22:10:09.539Z,7.73
2023-05-06T22:12:38.421Z,7.53
2023-05-06T22:15:07.416Z,8.30
2023-05-06T22:17:35.734Z,8.00
2023-05-06T22:20:04.498Z,9.00
2023-05-06T22:22:32.997Z,7.70
2023-05-06T22:25:02.675Z,7.90
2023-05-06T22:27:30.935Z,7.17
2023-05-06T22:29:58.848Z,8.67
2023-05-06T22:32:26.753Z,7.43
2023-05-06T22:34:54.735Z,7.63
2023-05-06T22:37:22.672Z,7.70
2023-05-06T22:39:52.962Z,7.23
2023-05-06T22:42:22.156Z,7.37
2023-05-06T22:44:49.996Z,7.17
2023-05-06T22:47:19.664Z,7.80
2023-05-06T22:49:47.582Z,7.93
2023-05-06T22:52:15.560Z,7.67
2023-05-06T22:54:43.484Z,8.33
2023-05-06T22:57:11.476Z,7.83
2023-05-06T22:59:40.778Z,8.17
2023-05-06T23:02:08.635Z,8.40
2023-05-06T23:04:36.825Z,8.53
2023-05-06T23:07:04.690Z,7.97
2023-05-06T23:09:32.554Z,8.10
2023-05-06T23:12:01.471Z,8.70
2023-05-06T23:14:29.385Z,7.80
2023-05-06T23:16:58.660Z,7.30
2023-05-06T23:19:26.913Z,8.07
2023-05-06T23:21:54.795Z,8.00
2023-05-06T23:24:22.683Z,8.30
2023-05-06T23:26:50.584Z,6.50
2023-05-06T23:29:18.413Z,7.23
2023-05-06T23:31:46.299Z,8.30
2023-05-06T23:34:15.528Z,8.07
2023-05-06T23:36:43.506Z,7.27
2023-05-06T23:39:12.248Z,7.43
2023-05-06T23:41:40.194Z,7.17
2023-05-06T23:44:08.172Z,6.97
2023-05-06T23:46:38.135Z,7.10
2023-05-06T23:49:06.039Z,6.93
2023-05-06T23:51:35.317Z,6.83
2023-05-06T23:54:03.727Z,7.33
2023-05-06T23:56:31.606Z,7.20
2023-05-06T23:59:01.502Z,6.67
